createdAt,value
2022-07-27T00:00:25.455Z,10.90
2022-07-27T00:01:09.571Z,13.40
2022-07-27T00:01:50.818Z,13.90
2022-07-27T00:02:24.777Z,15.20
2022-07-27T00:02:57.876Z,10.30
2022-07-27T00:03:30.971Z,10.50
2022-07-27T00:04:04.211Z,11.10
2022-07-27T00:04:37.439Z,11.80
2022-07-27T00:05:11.674Z,15.90
2022-07-27T00:05:45.121Z,13.00
2022-07-27T00:06:18.341Z,12.60
2022-07-27T00:06:51.786Z,15.80
2022-07-27T00:07:24.888Z,12.10
2022-07-27T00:07:58.052Z,12.80
2022-07-27T00:08:31.244Z,13.40
2022-07-27T00:09:04.696Z,11.40
2022-07-27T00:09:37.818Z,12.10
2022-07-27T00:10:10.999Z,11.80
2022-07-27T00:10:44.086Z,9.10
2022-07-27T00:11:17.279Z,11.50
2022-07-27T00:11:50.749Z,14.60
2022-07-27T00:12:23.800Z,11.90
2022-07-27T00:12:57.297Z,13.10
2022-07-27T00:13:30.531Z,12.10
2022-07-27T00:14:03.836Z,11.40
2022-07-27T00:14:37.731Z,9.70
2022-07-27T00:15:11.712Z,13.00
2022-07-27T00:15:44.933Z,12.40
2022-07-27T00:16:18.165Z,12.10
2022-07-27T00:16:51.549Z,13.50
2022-07-27T00:17:25.974Z,11.80
2022-07-27T00:18:01.335Z,15.90
2022-07-27T00:18:34.665Z,15.10
2022-07-27T00:19:09.405Z,10.50
2022-07-27T00:19:42.836Z,11.20
2022-07-27T00:20:16.103Z,12.30
2022-07-27T00:20:49.242Z,13.00
2022-07-27T00:21:22.382Z,12.40
2022-07-27T00:21:55.584Z,9.60
2022-07-27T00:22:28.824Z,12.70
2022-07-27T00:23:02.526Z,10.50
2022-07-27T00:23:35.750Z,14.40
2022-07-27T00:24:09.073Z,9.80
2022-07-27T00:24:42.419Z,12.30
2022-07-27T00:25:16.448Z,12.90
2022-07-27T00:25:50.096Z,9.90
2022-07-27T00:26:23.186Z,14.40
2022-07-27T00:26:56.369Z,13.70
2022-07-27T00:27:29.495Z,15.90
2022-07-27T00:28:03.208Z,14.90
2022-07-27T00:28:36.325Z,11.90
2022-07-27T00:29:09.758Z,10.70
2022-07-27T00:29:43.465Z,11.10
2022-07-27T00:30:17.046Z,12.70
2022-07-27T00:30:50.378Z,13.50
2022-07-27T00:31:23.608Z,19.90
2022-07-27T00:31:56.913Z,18.70
2022-07-27T00:32:32.733Z,12.90
2022-07-27T00:33:06.334Z,13.00
2022-07-27T00:33:39.519Z,20.40
2022-07-27T00:34:12.585Z,17.30
2022-07-27T00:34:45.715Z,17.40
2022-07-27T00:35:19.451Z,12.20
2022-07-27T00:35:52.549Z,14.10
2022-07-27T00:36:25.750Z,13.90
2022-07-27T00:36:59.311Z,12.40
2022-07-27T00:37:32.351Z,14.30
2022-07-27T00:38:05.476Z,14.10
2022-07-27T00:38:39.028Z,15.40
2022-07-27T00:39:12.531Z,13.60
2022-07-27T00:39:46.171Z,11.90
2022-07-27T00:40:19.332Z,13.00
2022-07-27T00:40:52.372Z,11.90
2022-07-27T00:41:25.577Z,11.80
2022-07-27T00:41:59.173Z,12.20
2022-07-27T00:42:32.476Z,13.30
2022-07-27T00:43:05.607Z,15.40
2022-07-27T00:43:59.835Z,13.00
2022-07-27T00:44:33.319Z,11.20
2022-07-27T00:45:07.035Z,13.50
2022-07-27T00:45:40.146Z,11.40
2022-07-27T00:46:13.479Z,19.70
2022-07-27T00:46:46.655Z,13.30
2022-07-27T00:47:19.878Z,11.00
2022-07-27T00:47:55.074Z,11.50
2022-07-27T00:48:29.378Z,14.70
2022-07-27T00:49:02.896Z,12.70
2022-07-27T00:49:36.130Z,11.50
2022-07-27T00:50:09.961Z,10.70
2022-07-27T00:50:44.048Z,12.40
2022-07-27T00:51:20.826Z,15.70
2022-07-27T00:51:55.465Z,13.50
2022-07-27T00:52:30.297Z,12.20
2022-07-27T00:53:05.258Z,15.00
2022-07-27T00:53:38.898Z,15.40
2022-07-27T00:54:12.475Z,15.90
2022-07-27T00:54:45.981Z,16.00
2022-07-27T00:55:19.856Z,14.30
2022-07-27T00:55:53.712Z,16.10
2022-07-27T00:56:26.714Z,12.30
2022-07-27T00:56:59.837Z,11.10
2022-07-27T00:57:33.615Z,19.20
2022-07-27T00:58:27.814Z,9.30
2022-07-27T00:59:01.041Z,12.10
2022-07-27T00:59:34.151Z,20.00
2022-07-27T01:00:08.632Z,15.50
2022-07-27T01:00:41.806Z,18.90
2022-07-27T01:01:15.838Z,17.20
2022-07-27T01:01:49.284Z,12.60
2022-07-27T01:02:23.617Z,14.70
2022-07-27T01:02:57.378Z,18.70
2022-07-27T01:03:31.312Z,12.50
2022-07-27T01:04:05.339Z,11.20
2022-07-27T01:04:38.560Z,15.30
2022-07-27T01:05:12.857Z,13.50
2022-07-27T01:05:47.578Z,16.30
2022-07-27T01:06:27.053Z,13.80
2022-07-27T01:07:02.907Z,14.80
2022-07-27T01:07:36.056Z,13.20
2022-07-27T01:08:12.416Z,15.20
2022-07-27T01:08:45.885Z,15.30
2022-07-27T01:09:37.599Z,14.00
2022-07-27T01:10:10.752Z,15.40
2022-07-27T01:10:44.890Z,20.50
2022-07-27T01:11:18.087Z,15.50
2022-07-27T01:11:51.150Z,14.80
2022-07-27T01:12:29.772Z,17.50
2022-07-27T01:13:03.046Z,14.30
2022-07-27T01:13:37.247Z,13.40
2022-07-27T01:14:13.928Z,16.40
2022-07-27T01:14:48.759Z,14.20
2022-07-27T01:15:22.089Z,14.00
2022-07-27T01:15:56.202Z,12.00
2022-07-27T01:16:29.477Z,14.40
2022-07-27T01:17:02.663Z,17.30
2022-07-27T01:17:35.952Z,14.70
2022-07-27T01:18:13.684Z,15.50
2022-07-27T01:18:46.782Z,15.10
2022-07-27T01:19:20.001Z,17.30
2022-07-27T01:19:53.761Z,19.30
2022-07-27T01:20:26.860Z,18.40
2022-07-27T01:21:02.043Z,21.00
2022-07-27T01:21:35.919Z,20.40
2022-07-27T01:22:09.229Z,19.40
2022-07-27T01:22:42.302Z,24.50
2022-07-27T01:23:15.750Z,22.50
2022-07-27T01:23:48.922Z,15.40
2022-07-27T01:24:22.068Z,18.10
2022-07-27T01:24:55.245Z,16.70
2022-07-27T01:25:28.305Z,16.30
2022-07-27T01:26:02.855Z,20.70
2022-07-27T01:26:38.023Z,14.70
2022-07-27T01:27:11.247Z,15.90
2022-07-27T01:27:44.263Z,12.90
2022-07-27T01:28:17.442Z,15.00
2022-07-27T01:28:50.558Z,16.70
2022-07-27T01:29:23.665Z,21.00
2022-07-27T01:29:56.815Z,19.00
2022-07-27T01:30:30.803Z,16.30
2022-07-27T01:31:03.907Z,18.90
2022-07-27T01:31:37.225Z,21.40
2022-07-27T01:32:10.545Z,18.40
2022-07-27T01:32:43.807Z,21.70
2022-07-27T01:33:17.028Z,13.80
2022-07-27T01:33:50.611Z,17.50
2022-07-27T01:34:23.731Z,22.60
2022-07-27T01:34:56.933Z,20.70
2022-07-27T01:35:30.285Z,21.30
2022-07-27T01:36:03.661Z,17.60
2022-07-27T01:36:36.914Z,13.80
2022-07-27T01:37:10.374Z,19.60
2022-07-27T01:37:48.254Z,16.80
2022-07-27T01:38:21.816Z,16.00
2022-07-27T01:38:54.839Z,14.10
2022-07-27T01:39:28.565Z,12.90
2022-07-27T01:40:02.808Z,15.70
2022-07-27T01:40:37.260Z,16.90
2022-07-27T01:41:10.235Z,15.60
2022-07-27T01:41:43.930Z,15.90
2022-07-27T01:42:17.173Z,12.30
2022-07-27T01:42:50.904Z,14.00
2022-07-27T01:43:24.222Z,15.00
2022-07-27T01:43:57.379Z,17.80
2022-07-27T01:44:30.583Z,16.50
2022-07-27T01:45:03.927Z,14.30
2022-07-27T01:45:37.071Z,16.20
2022-07-27T01:46:10.165Z,17.30
2022-07-27T01:46:43.370Z,11.90
2022-07-27T01:47:16.501Z,15.90
2022-07-27T01:47:49.688Z,13.40
2022-07-27T01:48:22.979Z,18.30
2022-07-27T01:48:56.127Z,18.10
2022-07-27T01:49:29.262Z,19.00
2022-07-27T01:50:02.476Z,19.90
2022-07-27T01:50:35.462Z,18.20
2022-07-27T01:51:08.498Z,13.30
2022-07-27T01:51:41.615Z,15.10
2022-07-27T01:52:14.751Z,15.10
2022-07-27T01:52:48.050Z,15.10
2022-07-27T01:53:22.364Z,16.00
2022-07-27T01:53:55.632Z,13.40
2022-07-27T01:54:28.659Z,16.70
2022-07-27T01:55:01.666Z,15.70
2022-07-27T01:55:38.386Z,16.20
2022-07-27T01:56:13.516Z,15.50
2022-07-27T01:56:46.643Z,13.90
2022-07-27T01:57:21.431Z,17.10
2022-07-27T01:57:54.634Z,15.80
2022-07-27T01:58:27.657Z,20.50
2022-07-27T01:59:00.740Z,16.00
2022-07-27T01:59:33.832Z,17.20
2022-07-27T02:00:11.342Z,16.90
2022-07-27T02:00:44.829Z,17.90
2022-07-27T02:01:17.939Z,21.70
2022-07-27T02:01:51.150Z,20.60
2022-07-27T02:02:24.281Z,20.70
2022-07-27T02:02:57.414Z,17.30
2022-07-27T02:03:30.624Z,19.40
2022-07-27T02:04:03.812Z,17.60
2022-07-27T02:04:36.909Z,21.10
2022-07-27T02:05:12.312Z,16.30
2022-07-27T02:05:45.658Z,18.80
2022-07-27T02:06:18.966Z,19.20
2022-07-27T02:06:52.091Z,16.00
2022-07-27T02:07:25.025Z,18.10
2022-07-27T02:07:58.219Z,21.60
2022-07-27T02:08:31.780Z,18.50
2022-07-27T02:09:04.953Z,19.60
2022-07-27T02:09:38.262Z,17.30
2022-07-27T02:10:11.356Z,26.90
2022-07-27T02:11:03.024Z,22.30
2022-07-27T02:11:54.657Z,14.10
2022-07-27T02:12:36.879Z,19.00
2022-07-27T02:13:21.973Z,14.90
2022-07-27T02:13:56.391Z,15.40
2022-07-27T02:14:29.523Z,18.40
2022-07-27T02:15:25.167Z,15.10
2022-07-27T02:15:58.820Z,13.80
2022-07-27T02:16:32.492Z,23.00
2022-07-27T02:17:05.733Z,19.10
2022-07-27T02:17:40.594Z,16.90
2022-07-27T02:18:33.526Z,18.50
2022-07-27T02:19:08.890Z,18.00
2022-07-27T02:19:44.274Z,16.60
2022-07-27T02:20:19.996Z,20.10
2022-07-27T02:20:53.157Z,15.90
2022-07-27T02:21:26.495Z,19.00
2022-07-27T02:21:59.639Z,19.30
2022-07-27T02:22:33.935Z,23.40
2022-07-27T02:23:06.986Z,20.40
2022-07-27T02:23:40.978Z,16.60
2022-07-27T02:24:14.017Z,21.00
2022-07-27T02:24:47.215Z,18.80
2022-07-27T02:25:20.826Z,19.20
2022-07-27T02:25:54.314Z,21.50
2022-07-27T02:26:27.900Z,19.30
2022-07-27T02:27:01.062Z,16.30
2022-07-27T02:27:34.398Z,17.80
2022-07-27T02:28:07.820Z,16.50
2022-07-27T02:28:40.942Z,20.70
2022-07-27T02:29:14.513Z,19.10
2022-07-27T02:29:47.916Z,18.70
2022-07-27T02:30:20.962Z,16.80
2022-07-27T02:30:54.115Z,15.90
2022-07-27T02:31:27.178Z,22.90
2022-07-27T02:32:06.691Z,22.00
2022-07-27T02:32:44.272Z,19.60
2022-07-27T02:33:17.988Z,22.10
2022-07-27T02:33:51.233Z,20.70
2022-07-27T02:34:24.223Z,24.10
2022-07-27T02:34:57.380Z,23.80
2022-07-27T02:35:30.603Z,26.00
2022-07-27T02:36:04.274Z,21.50
2022-07-27T02:36:37.376Z,20.50
2022-07-27T02:37:10.692Z,20.20
2022-07-27T02:37:43.825Z,22.40
2022-07-27T02:38:17.068Z,19.10
2022-07-27T02:38:50.135Z,22.90
2022-07-27T02:39:23.250Z,23.90
2022-07-27T02:39:56.570Z,19.30
2022-07-27T02:40:29.629Z,19.40
2022-07-27T02:41:02.753Z,23.20
2022-07-27T02:41:37.253Z,24.00
2022-07-27T02:42:10.262Z,20.00
2022-07-27T02:42:43.778Z,26.40
2022-07-27T02:43:16.780Z,25.50
2022-07-27T02:43:49.997Z,20.40
2022-07-27T02:44:23.080Z,27.50
2022-07-27T02:44:56.262Z,24.60
2022-07-27T02:45:29.472Z,29.30
2022-07-27T02:46:02.546Z,25.20
2022-07-27T02:46:35.793Z,23.70
2022-07-27T02:47:08.940Z,24.30
2022-07-27T02:47:42.909Z,25.60
2022-07-27T02:48:15.963Z,22.30
2022-07-27T02:48:49.016Z,28.00
2022-07-27T02:49:22.108Z,24.60
2022-07-27T02:49:55.237Z,23.10
2022-07-27T02:50:28.386Z,23.70
2022-07-27T02:51:02.180Z,25.40
2022-07-27T02:51:36.382Z,25.50
2022-07-27T02:52:12.699Z,22.70
2022-07-27T02:52:45.923Z,25.40
2022-07-27T02:53:19.137Z,21.50
2022-07-27T02:53:52.207Z,22.30
2022-07-27T02:54:25.728Z,26.80
2022-07-27T02:54:59.282Z,29.70
2022-07-27T02:55:32.373Z,25.20
2022-07-27T02:56:05.883Z,22.90
2022-07-27T02:56:39.023Z,25.10
2022-07-27T02:57:12.054Z,24.80
2022-07-27T02:57:45.150Z,25.20
2022-07-27T02:58:18.209Z,22.40
2022-07-27T02:58:51.674Z,25.70
2022-07-27T02:59:24.721Z,25.50
2022-07-27T02:59:57.890Z,25.10
2022-07-27T03:00:31.169Z,28.70
2022-07-27T03:01:05.511Z,25.80
2022-07-27T03:01:40.288Z,25.60
2022-07-27T03:02:13.446Z,26.60
2022-07-27T03:02:50.454Z,26.30
2022-07-27T03:03:23.691Z,31.10
2022-07-27T03:04:09.334Z,27.40
2022-07-27T03:04:42.558Z,24.70
2022-07-27T03:05:15.974Z,23.20
2022-07-27T03:05:50.102Z,28.40
2022-07-27T03:06:23.162Z,21.30
2022-07-27T03:06:56.344Z,23.70
2022-07-27T03:07:29.957Z,23.40
2022-07-27T03:08:04.360Z,23.60
2022-07-27T03:08:38.088Z,25.20
2022-07-27T03:09:11.383Z,25.50
2022-07-27T03:09:48.150Z,24.80
2022-07-27T03:10:23.931Z,22.40
2022-07-27T03:10:57.080Z,25.00
2022-07-27T03:11:30.753Z,20.90
2022-07-27T03:12:04.163Z,21.40
2022-07-27T03:12:37.317Z,23.50
2022-07-27T03:13:10.428Z,25.40
2022-07-27T03:13:43.473Z,22.90
2022-07-27T03:14:16.471Z,24.00
2022-07-27T03:14:49.756Z,25.00
2022-07-27T03:15:22.962Z,20.90
2022-07-27T03:15:57.612Z,20.40
2022-07-27T03:16:30.878Z,22.40
2022-07-27T03:17:04.120Z,22.40
2022-07-27T03:17:37.162Z,24.30
2022-07-27T03:18:10.224Z,20.30
2022-07-27T03:18:43.274Z,25.70
2022-07-27T03:19:16.317Z,21.60
2022-07-27T03:19:50.263Z,26.60
2022-07-27T03:20:23.351Z,27.50
2022-07-27T03:20:56.400Z,23.00
2022-07-27T03:21:29.629Z,24.40
2022-07-27T03:22:02.741Z,22.70
2022-07-27T03:22:35.879Z,21.20
2022-07-27T03:23:08.957Z,21.30
2022-07-27T03:23:42.046Z,20.70
2022-07-27T03:24:15.148Z,21.80
2022-07-27T03:24:48.643Z,22.70
2022-07-27T03:25:21.833Z,24.30
2022-07-27T03:25:54.962Z,20.50
2022-07-27T03:26:30.828Z,24.80
2022-07-27T03:27:04.087Z,21.20
2022-07-27T03:27:37.189Z,24.40
2022-07-27T03:28:10.227Z,28.20
2022-07-27T03:28:43.439Z,24.60
2022-07-27T03:29:16.535Z,23.40
2022-07-27T03:29:49.664Z,22.90
2022-07-27T03:30:22.879Z,32.00
2022-07-27T03:30:56.215Z,24.20
2022-07-27T03:31:29.444Z,20.50
2022-07-27T03:32:02.849Z,25.00
2022-07-27T03:32:36.047Z,26.40
2022-07-27T03:33:09.175Z,20.80
2022-07-27T03:33:42.326Z,24.00
2022-07-27T03:34:15.559Z,21.40
2022-07-27T03:34:48.697Z,22.00
2022-07-27T03:35:21.888Z,23.10
2022-07-27T03:35:54.942Z,21.40
2022-07-27T03:36:28.000Z,22.20
2022-07-27T03:37:03.792Z,20.00
2022-07-27T03:37:36.974Z,24.60
2022-07-27T03:38:10.096Z,23.90
2022-07-27T03:38:44.688Z,21.60
2022-07-27T03:39:17.957Z,26.70
2022-07-27T03:39:51.044Z,22.90
2022-07-27T03:40:24.092Z,22.90
2022-07-27T03:40:57.215Z,23.00
2022-07-27T03:41:30.310Z,23.50
2022-07-27T03:42:04.159Z,28.50
2022-07-27T03:42:37.565Z,23.40
2022-07-27T03:43:10.630Z,25.10
2022-07-27T03:43:43.679Z,24.30
2022-07-27T03:44:16.772Z,25.70
2022-07-27T03:44:49.967Z,22.50
2022-07-27T03:45:23.219Z,25.10
2022-07-27T03:45:56.414Z,20.40
2022-07-27T03:46:29.660Z,21.40
2022-07-27T03:47:02.751Z,21.10
2022-07-27T03:47:35.858Z,23.60
2022-07-27T03:48:08.877Z,24.70
2022-07-27T03:48:41.932Z,21.30
2022-07-27T03:49:15.614Z,20.30
2022-07-27T03:49:49.220Z,20.00
2022-07-27T03:50:22.885Z,22.10
2022-07-27T03:50:56.093Z,24.40
2022-07-27T03:51:29.156Z,22.00
2022-07-27T03:52:02.378Z,21.90
2022-07-27T03:52:35.370Z,19.00
2022-07-27T03:53:09.391Z,22.40
2022-07-27T03:53:42.657Z,21.30
2022-07-27T03:54:18.065Z,25.70
2022-07-27T03:54:51.149Z,20.10
2022-07-27T03:55:24.293Z,19.90
2022-07-27T03:55:57.341Z,21.90
2022-07-27T03:56:33.430Z,23.30
2022-07-27T03:57:06.738Z,26.80
2022-07-27T03:57:39.883Z,21.80
2022-07-27T03:58:12.932Z,22.50
2022-07-27T03:58:46.600Z,22.60
2022-07-27T03:59:19.837Z,25.10
2022-07-27T03:59:52.897Z,26.70
2022-07-27T04:00:26.348Z,22.10
2022-07-27T04:00:59.577Z,22.90
2022-07-27T04:01:32.678Z,22.00
2022-07-27T04:02:06.266Z,20.00
2022-07-27T04:02:43.172Z,22.70
2022-07-27T04:03:17.629Z,23.10
2022-07-27T04:03:50.624Z,24.10
2022-07-27T04:04:23.625Z,22.20
2022-07-27T04:04:56.564Z,23.70
2022-07-27T04:05:29.779Z,20.90
2022-07-27T04:06:03.099Z,21.40
2022-07-27T04:06:36.140Z,22.90
2022-07-27T04:07:09.320Z,19.50
2022-07-27T04:07:42.454Z,23.70
2022-07-27T04:08:17.612Z,20.20
2022-07-27T04:08:52.284Z,23.80
2022-07-27T04:09:29.402Z,20.70
2022-07-27T04:10:04.903Z,23.00
2022-07-27T04:10:38.023Z,21.50
2022-07-27T04:11:11.989Z,21.80
2022-07-27T04:11:51.200Z,25.00
2022-07-27T04:12:24.769Z,21.80
2022-07-27T04:12:57.744Z,23.50
2022-07-27T04:13:31.770Z,23.60
2022-07-27T04:14:05.436Z,23.10
2022-07-27T04:14:38.496Z,21.70
2022-07-27T04:15:11.711Z,20.60
2022-07-27T04:15:44.748Z,24.60
2022-07-27T04:16:18.497Z,22.60
2022-07-27T04:16:51.789Z,20.90
2022-07-27T04:17:54.346Z,20.80
2022-07-27T04:18:18.037Z,23.60
2022-07-27T04:18:53.608Z,23.20
2022-07-27T04:19:26.836Z,23.60
2022-07-27T04:19:59.992Z,24.60
2022-07-27T04:20:33.090Z,22.10
2022-07-27T04:21:06.688Z,20.70
2022-07-27T04:21:39.842Z,20.00
2022-07-27T04:22:13.117Z,24.50
2022-07-27T04:22:46.225Z,23.10
2022-07-27T04:23:19.307Z,24.20
2022-07-27T04:23:52.427Z,23.30
2022-07-27T04:24:25.509Z,21.50
2022-07-27T04:24:58.626Z,25.50
2022-07-27T04:25:31.780Z,24.90
2022-07-27T04:26:05.543Z,22.20
2022-07-27T04:26:38.722Z,23.40
2022-07-27T04:27:11.773Z,25.60
2022-07-27T04:27:44.912Z,24.30
2022-07-27T04:28:17.926Z,25.40
2022-07-27T04:28:51.137Z,23.00
2022-07-27T04:29:24.558Z,23.30
2022-07-27T04:29:57.848Z,24.10
2022-07-27T04:30:30.961Z,23.60
2022-07-27T04:31:04.166Z,24.30
2022-07-27T04:31:37.408Z,24.40
2022-07-27T04:32:10.508Z,25.90
2022-07-27T04:32:43.593Z,26.50
2022-07-27T04:33:16.656Z,23.90
2022-07-27T04:33:49.789Z,25.30
2022-07-27T04:34:22.880Z,23.90
2022-07-27T04:34:56.062Z,22.80
2022-07-27T04:35:29.133Z,24.10
2022-07-27T04:36:02.205Z,25.20
2022-07-27T04:36:38.663Z,26.30
2022-07-27T04:37:11.673Z,22.10
2022-07-27T04:37:57.856Z,25.60
2022-07-27T04:38:32.523Z,25.60
2022-07-27T04:39:06.657Z,21.20
2022-07-27T04:39:40.266Z,23.80
2022-07-27T04:40:13.529Z,21.50
2022-07-27T04:40:47.780Z,21.20
2022-07-27T04:41:20.844Z,21.30
2022-07-27T04:41:53.898Z,23.70
2022-07-27T04:42:27.122Z,22.10
2022-07-27T04:43:02.410Z,23.80
2022-07-27T04:43:35.484Z,25.40
2022-07-27T04:44:08.729Z,22.30
2022-07-27T04:44:41.779Z,25.50
2022-07-27T04:45:14.883Z,22.60
2022-07-27T04:45:48.143Z,23.40
2022-07-27T04:46:21.365Z,22.20
2022-07-27T04:46:56.924Z,24.00
2022-07-27T04:47:29.999Z,23.30
2022-07-27T04:48:08.344Z,23.60
2022-07-27T04:48:41.932Z,23.00
2022-07-27T04:49:22.689Z,22.30
2022-07-27T04:49:56.308Z,22.40
2022-07-27T04:50:29.617Z,23.20
2022-07-27T04:51:02.684Z,24.10
2022-07-27T04:51:35.758Z,22.70
2022-07-27T04:52:08.899Z,23.50
2022-07-27T04:52:42.042Z,23.30
2022-07-27T04:53:16.596Z,23.50
2022-07-27T04:53:53.432Z,22.40
2022-07-27T04:54:31.844Z,27.60
2022-07-27T04:55:05.268Z,22.70
2022-07-27T04:55:42.570Z,21.80
2022-07-27T04:56:15.607Z,21.80
2022-07-27T04:56:52.238Z,23.40
2022-07-27T04:57:25.447Z,21.90
2022-07-27T04:57:58.557Z,25.70
2022-07-27T04:58:31.737Z,22.00
2022-07-27T04:59:04.898Z,21.50
2022-07-27T04:59:38.210Z,23.50
2022-07-27T05:00:11.769Z,21.70
2022-07-27T05:00:45.252Z,22.20
2022-07-27T05:01:18.615Z,24.00
2022-07-27T05:01:51.803Z,22.20
2022-07-27T05:02:26.652Z,22.80
2022-07-27T05:02:59.789Z,24.10
2022-07-27T05:03:32.848Z,23.30
2022-07-27T05:04:06.293Z,24.30
2022-07-27T05:04:39.868Z,22.80
2022-07-27T05:05:13.037Z,26.30
2022-07-27T05:05:50.277Z,25.40
2022-07-27T05:06:23.781Z,25.90
2022-07-27T05:06:56.868Z,23.70
2022-07-27T05:07:29.978Z,25.00
2022-07-27T05:08:03.687Z,25.20
2022-07-27T05:08:37.084Z,25.90
2022-07-27T05:09:10.493Z,22.40
2022-07-27T05:09:43.881Z,23.40
2022-07-27T05:10:20.562Z,24.90
2022-07-27T05:10:54.072Z,22.80
2022-07-27T05:11:27.197Z,22.90
2022-07-27T05:12:00.336Z,26.00
2022-07-27T05:12:33.446Z,26.50
2022-07-27T05:13:07.297Z,23.60
2022-07-27T05:13:41.503Z,22.90
2022-07-27T05:14:14.547Z,23.00
2022-07-27T05:14:47.656Z,21.10
2022-07-27T05:15:20.895Z,23.70
2022-07-27T05:15:55.914Z,22.80
2022-07-27T05:16:29.479Z,23.30
2022-07-27T05:17:02.759Z,21.90
2022-07-27T05:17:38.364Z,24.00
2022-07-27T05:18:11.426Z,24.60
2022-07-27T05:18:46.267Z,25.30
2022-07-27T05:19:19.478Z,25.70
2022-07-27T05:19:52.760Z,25.20
2022-07-27T05:20:25.882Z,25.20
2022-07-27T05:20:59.002Z,26.90
2022-07-27T05:21:32.063Z,24.50
2022-07-27T05:22:05.174Z,25.70
2022-07-27T05:22:40.106Z,25.70
2022-07-27T05:23:13.475Z,24.20
2022-07-27T05:23:46.612Z,26.00
2022-07-27T05:24:20.402Z,25.80
2022-07-27T05:24:53.483Z,24.70
2022-07-27T05:25:26.644Z,25.40
2022-07-27T05:26:00.133Z,24.10
2022-07-27T05:26:33.153Z,24.70
2022-07-27T05:27:06.908Z,25.60
2022-07-27T05:27:50.929Z,26.60
2022-07-27T05:28:28.477Z,23.90
2022-07-27T05:29:01.505Z,24.30
2022-07-27T05:29:35.302Z,26.40
2022-07-27T05:30:09.672Z,26.80
2022-07-27T05:30:46.427Z,23.20
2022-07-27T05:31:19.673Z,24.80
2022-07-27T05:31:53.009Z,25.20
2022-07-27T05:32:26.241Z,25.20
2022-07-27T05:32:59.579Z,25.60
2022-07-27T05:33:33.119Z,24.60
2022-07-27T05:34:06.157Z,24.50
2022-07-27T05:34:39.230Z,24.80
2022-07-27T05:35:12.744Z,25.00
2022-07-27T05:35:45.855Z,23.40
2022-07-27T05:36:18.957Z,24.90
2022-07-27T05:36:52.151Z,23.80
2022-07-27T05:37:25.294Z,24.90
2022-07-27T05:37:58.373Z,24.40
2022-07-27T05:38:32.469Z,24.30
2022-07-27T05:39:08.182Z,24.60
2022-07-27T05:39:44.860Z,24.40
2022-07-27T05:40:17.906Z,25.00
2022-07-27T05:40:51.188Z,27.10
2022-07-27T05:41:25.578Z,24.20
2022-07-27T05:41:58.820Z,24.50
2022-07-27T05:42:31.970Z,26.80
2022-07-27T05:43:05.326Z,27.10
2022-07-27T05:43:38.449Z,24.90
2022-07-27T05:44:11.645Z,25.50
2022-07-27T05:44:44.842Z,25.40
2022-07-27T05:45:18.060Z,25.30
2022-07-27T05:45:51.265Z,25.50
2022-07-27T05:46:25.634Z,25.80
2022-07-27T05:47:00.638Z,24.70
2022-07-27T05:47:33.998Z,25.20
2022-07-27T05:48:07.227Z,26.80
2022-07-27T05:48:40.740Z,23.90
2022-07-27T05:49:15.012Z,24.40
2022-07-27T05:49:48.859Z,25.10
2022-07-27T05:50:22.121Z,23.00
2022-07-27T05:50:55.265Z,23.40
2022-07-27T05:51:28.757Z,24.40
2022-07-27T05:52:02.047Z,26.50
2022-07-27T05:52:35.200Z,24.00
2022-07-27T05:53:09.065Z,22.90
2022-07-27T05:53:42.441Z,25.10
2022-07-27T05:54:15.661Z,24.00
2022-07-27T05:54:48.767Z,23.50
2022-07-27T05:55:22.077Z,24.40
2022-07-27T05:55:59.170Z,23.40
2022-07-27T05:56:32.816Z,24.10
2022-07-27T05:57:06.047Z,23.90
2022-07-27T05:57:41.346Z,23.80
2022-07-27T05:58:14.471Z,23.80
2022-07-27T05:58:47.528Z,24.20
2022-07-27T05:59:20.622Z,24.40
2022-07-27T05:59:55.299Z,24.50
2022-07-27T06:00:28.435Z,25.20
2022-07-27T06:01:01.675Z,24.60
2022-07-27T06:01:35.019Z,26.60
2022-07-27T06:02:09.342Z,24.30
2022-07-27T06:02:42.663Z,25.00
2022-07-27T06:03:15.752Z,22.90
2022-07-27T06:03:48.991Z,26.20
2022-07-27T06:04:22.157Z,24.60
2022-07-27T06:04:55.241Z,23.10
2022-07-27T06:05:29.746Z,22.60
2022-07-27T06:06:21.616Z,22.20
2022-07-27T06:07:13.304Z,22.40
2022-07-27T06:08:09.164Z,22.40
2022-07-27T06:08:42.348Z,23.40
2022-07-27T06:09:15.616Z,22.20
2022-07-27T06:09:48.747Z,23.70
2022-07-27T06:10:21.840Z,22.90
2022-07-27T06:10:54.822Z,27.70
2022-07-27T06:11:27.887Z,24.40
2022-07-27T06:12:01.089Z,24.30
2022-07-27T06:12:42.252Z,24.00
2022-07-27T06:13:15.341Z,23.50
2022-07-27T06:13:48.358Z,25.30
2022-07-27T06:14:21.372Z,26.00
2022-07-27T06:14:54.472Z,25.20
2022-07-27T06:15:27.689Z,26.80
2022-07-27T06:16:00.822Z,24.10
2022-07-27T06:16:34.550Z,25.50
2022-07-27T06:17:07.981Z,24.40
2022-07-27T06:17:41.461Z,23.80
2022-07-27T06:18:18.412Z,23.90
2022-07-27T06:18:52.770Z,24.40
2022-07-27T06:19:25.929Z,23.30
2022-07-27T06:20:10.446Z,25.60
2022-07-27T06:20:43.685Z,23.00
2022-07-27T06:21:17.150Z,22.00
2022-07-27T06:21:53.803Z,23.60
2022-07-27T06:22:27.688Z,23.50
2022-07-27T06:23:07.569Z,23.20
2022-07-27T06:23:41.435Z,23.20
2022-07-27T06:24:14.920Z,24.10
2022-07-27T06:24:48.031Z,23.00
2022-07-27T06:25:22.545Z,24.10
2022-07-27T06:25:57.781Z,24.70
2022-07-27T06:26:30.894Z,23.50
2022-07-27T06:27:04.125Z,25.50
2022-07-27T06:27:38.084Z,26.30
2022-07-27T06:28:11.238Z,25.60
2022-07-27T06:28:44.470Z,25.00
2022-07-27T06:29:17.659Z,25.50
2022-07-27T06:29:50.802Z,24.90
2022-07-27T06:30:23.951Z,24.20
2022-07-27T06:30:57.060Z,24.40
2022-07-27T06:31:35.604Z,23.90
2022-07-27T06:32:09.071Z,21.60
2022-07-27T06:32:43.980Z,23.00
2022-07-27T06:33:17.047Z,24.30
2022-07-27T06:33:52.233Z,24.20
2022-07-27T06:34:25.647Z,26.00
2022-07-27T06:35:00.405Z,23.80
2022-07-27T06:35:34.441Z,25.20
2022-07-27T06:36:11.138Z,26.00
2022-07-27T06:36:45.418Z,25.10
2022-07-27T06:37:18.712Z,25.20
2022-07-27T06:37:53.397Z,25.90
2022-07-27T06:38:27.780Z,25.80
2022-07-27T06:39:01.941Z,26.60
2022-07-27T06:39:35.093Z,24.80
2022-07-27T06:40:08.699Z,24.40
2022-07-27T06:40:41.766Z,25.40
2022-07-27T06:41:15.700Z,25.50
2022-07-27T06:41:49.235Z,23.80
2022-07-27T06:42:22.330Z,25.10
2022-07-27T06:42:55.422Z,23.70
2022-07-27T06:43:32.099Z,22.50
2022-07-27T06:44:05.791Z,25.40
2022-07-27T06:44:38.866Z,21.60
2022-07-27T06:45:12.953Z,22.50
2022-07-27T06:45:46.155Z,23.90
2022-07-27T06:46:19.325Z,27.60
2022-07-27T06:46:52.782Z,23.90
2022-07-27T06:47:28.762Z,22.40
2022-07-27T06:48:02.191Z,25.60
2022-07-27T06:48:35.389Z,24.50
2022-07-27T06:49:09.296Z,25.30
2022-07-27T06:49:42.628Z,25.20
2022-07-27T06:50:15.820Z,24.80
2022-07-27T06:50:49.617Z,26.60
2022-07-27T06:51:23.912Z,25.50
2022-07-27T06:51:57.146Z,26.50
2022-07-27T06:52:30.469Z,26.10
2022-07-27T06:53:03.934Z,25.20
2022-07-27T06:53:37.317Z,27.50
2022-07-27T06:54:11.533Z,25.50
2022-07-27T06:54:45.277Z,24.70
2022-07-27T06:55:18.411Z,26.20
2022-07-27T06:55:51.575Z,23.60
2022-07-27T06:56:25.010Z,25.10
2022-07-27T06:56:58.076Z,23.40
2022-07-27T06:57:31.329Z,23.10
2022-07-27T06:58:04.970Z,24.10
2022-07-27T06:58:38.082Z,23.60
2022-07-27T06:59:11.456Z,25.20
2022-07-27T06:59:44.816Z,24.60
2022-07-27T07:00:18.076Z,25.10
2022-07-27T07:00:51.611Z,26.50
2022-07-27T07:01:24.990Z,24.50
2022-07-27T07:01:58.193Z,26.60
2022-07-27T07:02:31.254Z,26.80
2022-07-27T07:03:05.721Z,25.50
2022-07-27T07:03:38.927Z,25.40
2022-07-27T07:04:12.134Z,27.50
2022-07-27T07:04:45.701Z,25.80
2022-07-27T07:05:19.012Z,26.90
2022-07-27T07:05:52.104Z,24.00
2022-07-27T07:06:25.191Z,25.20
2022-07-27T07:07:05.294Z,23.80
2022-07-27T07:07:40.563Z,24.10
2022-07-27T07:08:14.982Z,22.40
2022-07-27T07:08:48.133Z,23.50
2022-07-27T07:09:22.405Z,23.90
2022-07-27T07:09:55.648Z,23.10
2022-07-27T07:10:28.828Z,23.70
2022-07-27T07:11:02.458Z,23.10
2022-07-27T07:11:35.759Z,24.20
2022-07-27T07:12:08.921Z,23.30
2022-07-27T07:12:42.137Z,23.20
2022-07-27T07:13:16.121Z,30.70
2022-07-27T07:13:49.195Z,25.10
2022-07-27T07:14:23.002Z,23.90
2022-07-27T07:14:56.228Z,25.70
2022-07-27T07:15:29.321Z,26.60
2022-07-27T07:16:02.577Z,25.80
2022-07-27T07:16:36.320Z,26.20
2022-07-27T07:17:09.414Z,27.10
2022-07-27T07:17:43.038Z,25.40
2022-07-27T07:18:16.265Z,25.40
2022-07-27T07:18:52.407Z,23.70